createdAt,value
2019-05-13T00:00:06.702Z,54.81
2019-05-13T00:04:27.044Z,55.28
2019-05-13T00:08:47.885Z,56.17
2019-05-13T00:13:09.187Z,55.45
2019-05-13T00:17:29.960Z,55.88
2019-05-13T00:21:51.208Z,55.59
2019-05-13T00:26:13.969Z,55.40
2019-05-13T00:30:34.536Z,55.73
2019-05-13T00:34:55.434Z,55.91
2019-05-13T00:39:15.870Z,55.96
2019-05-13T00:43:36.430Z,56.25
2019-05-13T00:47:57.217Z,56.32
2019-05-13T00:52:17.601Z,56.24
2019-05-13T00:56:37.879Z,56.42
2019-05-13T01:00:58.490Z,56.49
2019-05-13T01:05:19.284Z,57.16
2019-05-13T01:09:40.049Z,57.00
2019-05-13T01:14:00.672Z,58.10
2019-05-13T01:18:23.289Z,57.56
2019-05-13T01:22:44.270Z,57.82
2019-05-13T01:27:04.633Z,58.29
2019-05-13T01:31:25.431Z,58.13
2019-05-13T01:35:45.854Z,58.42
2019-05-13T01:40:06.885Z,58.65
2019-05-13T01:44:27.684Z,58.45
2019-05-13T01:48:48.921Z,58.45
2019-05-13T01:53:09.373Z,59.07
2019-05-13T01:57:29.897Z,59.76
2019-05-13T02:01:51.124Z,59.55
2019-05-13T02:06:14.042Z,59.16
2019-05-13T02:10:34.362Z,59.88
2019-05-13T02:14:55.040Z,59.51
2019-05-13T02:19:16.064Z,60.04
2019-05-13T02:23:37.154Z,60.42
2019-05-13T02:27:58.473Z,60.79
2019-05-13T02:32:23.269Z,60.80
2019-05-13T02:36:43.915Z,61.31
2019-05-13T02:41:04.624Z,61.04
2019-05-13T02:45:25.371Z,60.60
2019-05-13T02:49:45.688Z,60.72
2019-05-13T02:54:06.229Z,61.39
2019-05-13T02:58:26.961Z,60.78
2019-05-13T03:02:48.314Z,62.15
2019-05-13T03:07:11.808Z,62.98
2019-05-13T03:11:33.165Z,62.96
2019-05-13T03:15:54.088Z,63.89
2019-05-13T03:20:16.838Z,64.73
2019-05-13T03:24:37.337Z,64.66
2019-05-13T03:28:58.912Z,64.76
2019-05-13T03:33:27.419Z,64.72
2019-05-13T03:37:42.717Z,64.70
2019-05-13T03:42:03.136Z,65.70
2019-05-13T03:46:25.387Z,65.85
2019-05-13T03:50:46.074Z,66.15
2019-05-13T03:55:06.965Z,66.24
2019-05-13T03:59:27.530Z,67.06
2019-05-13T04:03:47.955Z,66.65
2019-05-13T04:08:08.678Z,66.63
2019-05-13T04:12:28.961Z,66.69
2019-05-13T04:16:53.218Z,67.16
2019-05-13T04:21:13.659Z,66.63
2019-05-13T04:25:39.482Z,67.03
2019-05-13T04:29:57.359Z,66.30
2019-05-13T04:34:17.713Z,67.27
2019-05-13T04:38:38.459Z,67.01
2019-05-13T04:43:02.928Z,65.97
2019-05-13T04:47:23.963Z,65.80
2019-05-13T04:51:44.928Z,66.12
2019-05-13T04:56:05.716Z,65.36
2019-05-13T05:01:02.703Z,65.25
2019-05-13T05:05:52.914Z,64.10
2019-05-13T05:10:44.782Z,63.77
2019-05-13T05:15:52.279Z,63.78
2019-05-13T05:20:32.066Z,61.73
2019-05-13T05:25:05.209Z,62.11
2019-05-13T05:29:54.390Z,62.72
2019-05-13T05:34:38.717Z,61.86
2019-05-13T05:39:08.515Z,60.92
2019-05-13T05:43:31.497Z,61.44
2019-05-13T05:47:54.197Z,60.01
2019-05-13T05:52:18.335Z,60.79
2019-05-13T05:56:41.478Z,59.55
2019-05-13T06:01:02.756Z,59.77
2019-05-13T06:05:24.713Z,59.67
2019-05-13T06:09:44.872Z,57.52
2019-05-13T06:14:05.561Z,58.32
2019-05-13T06:18:26.221Z,57.81
2019-05-13T06:22:47.209Z,57.18
2019-05-13T06:27:07.488Z,55.75
2019-05-13T06:31:28.424Z,56.67
2019-05-13T06:35:51.941Z,55.04
2019-05-13T06:40:12.475Z,56.12
2019-05-13T06:44:33.273Z,54.25
2019-05-13T06:48:55.554Z,53.80
2019-05-13T06:53:16.176Z,52.96
2019-05-13T06:57:36.450Z,51.74
2019-05-13T07:01:56.837Z,51.93
2019-05-13T07:06:17.698Z,53.02
2019-05-13T07:10:38.314Z,50.80
2019-05-13T07:14:59.069Z,49.16
2019-05-13T07:19:19.840Z,49.04
2019-05-13T07:23:42.283Z,47.71
2019-05-13T07:28:03.074Z,45.18
2019-05-13T07:32:23.907Z,47.08
2019-05-13T07:36:44.283Z,45.20
2019-05-13T07:41:05.045Z,45.20
2019-05-13T07:45:25.752Z,43.41
2019-05-13T07:49:46.442Z,44.65
2019-05-13T07:54:07.194Z,42.72
2019-05-13T07:58:28.170Z,42.72
2019-05-13T08:02:48.786Z,41.54
2019-05-13T08:07:11.590Z,40.41
2019-05-13T08:11:35.344Z,40.41
2019-05-13T08:15:55.084Z,39.67
2019-05-13T08:20:16.560Z,39.67
2019-05-13T08:24:37.302Z,41.54
2019-05-13T08:29:01.985Z,39.08
2019-05-13T08:33:22.651Z,38.79
2019-05-13T08:37:43.516Z,38.58
2019-05-13T08:42:15.082Z,38.04
2019-05-13T08:46:27.205Z,37.67
2019-05-13T08:50:48.334Z,39.67
2019-05-13T08:55:15.265Z,38.55
2019-05-13T08:59:32.535Z,39.22
2019-05-13T09:03:53.142Z,37.77
2019-05-13T09:08:14.603Z,37.60
2019-05-13T09:12:40.032Z,34.37
2019-05-13T09:17:01.642Z,37.20
2019-05-13T09:21:22.462Z,35.41
2019-05-13T09:25:43.219Z,35.12
2019-05-13T09:30:05.128Z,35.43
2019-05-13T09:34:25.904Z,35.44
2019-05-13T09:38:46.584Z,36.03
2019-05-13T09:43:07.363Z,33.79
2019-05-13T09:47:28.557Z,32.77
2019-05-13T09:51:52.257Z,32.96
2019-05-13T09:56:12.568Z,29.89
2019-05-13T10:00:33.350Z,32.60
2019-05-13T10:04:54.012Z,32.29
2019-05-13T10:09:14.872Z,30.24
2019-05-13T10:13:35.261Z,31.69
2019-05-13T10:17:55.748Z,32.63
2019-05-13T10:22:16.912Z,33.10
2019-05-13T10:26:38.334Z,29.48
2019-05-13T10:30:58.976Z,31.24
2019-05-13T10:35:19.876Z,31.53
2019-05-13T10:39:40.652Z,30.59
2019-05-13T10:44:02.960Z,28.97
2019-05-13T10:48:24.188Z,31.13
2019-05-13T10:52:45.924Z,30.46
2019-05-13T10:57:06.912Z,29.44
2019-05-13T11:01:28.159Z,31.38
2019-05-13T11:05:48.575Z,28.42
2019-05-13T11:10:12.764Z,27.00
2019-05-13T11:14:32.622Z,29.11
2019-05-13T11:18:53.559Z,31.79
2019-05-13T11:23:14.015Z,30.84
2019-05-13T11:27:34.659Z,29.35
2019-05-13T11:31:55.597Z,28.12
2019-05-13T11:36:19.127Z,28.05
2019-05-13T11:40:39.209Z,29.31
2019-05-13T11:44:59.660Z,25.29
2019-05-13T11:49:20.308Z,25.88
2019-05-13T11:53:41.653Z,27.25
2019-05-13T11:58:03.040Z,27.46
2019-05-13T12:02:23.571Z,28.80
2019-05-13T12:06:48.843Z,23.15
2019-05-13T12:11:06.264Z,26.06
2019-05-13T12:15:42.480Z,29.29
2019-05-13T12:19:54.309Z,29.03
2019-05-13T12:24:14.163Z,28.99
2019-05-13T12:28:35.421Z,27.68
2019-05-13T12:32:56.237Z,28.98
2019-05-13T12:37:17.457Z,28.80
2019-05-13T12:41:38.558Z,29.11
2019-05-13T12:46:02.067Z,28.63
2019-05-13T12:50:23.514Z,27.88
2019-05-13T12:54:44.642Z,29.96
2019-05-13T12:59:05.314Z,28.60
2019-05-13T13:03:26.923Z,28.19
2019-05-13T13:08:13.530Z,28.33
2019-05-13T13:12:11.987Z,29.28
2019-05-13T13:16:35.423Z,28.06
2019-05-13T13:21:00.373Z,29.00
2019-05-13T13:25:17.703Z,27.91
2019-05-13T13:29:38.697Z,29.05
2019-05-13T13:34:11.973Z,26.86
2019-05-13T13:38:26.271Z,28.72
2019-05-13T13:42:46.938Z,28.00
2019-05-13T13:47:08.411Z,24.67
2019-05-13T13:51:34.005Z,26.04
2019-05-13T13:55:55.992Z,27.17
2019-05-13T14:00:33.044Z,29.91
2019-05-13T14:04:38.193Z,26.54
2019-05-13T14:09:00.905Z,26.62
2019-05-13T14:13:21.974Z,28.27
2019-05-13T14:17:44.124Z,27.68
2019-05-13T14:22:05.827Z,27.34
2019-05-13T14:26:26.886Z,26.27
2019-05-13T14:30:47.566Z,26.91
2019-05-13T14:35:08.986Z,25.58
2019-05-13T14:43:59.573Z,24.42
2019-05-13T14:48:22.311Z,25.99
2019-05-13T14:52:43.296Z,24.13
2019-05-13T14:57:04.361Z,24.38
2019-05-13T15:01:25.394Z,24.52
2019-05-13T15:05:46.089Z,26.26
2019-05-13T15:10:07.298Z,23.70
2019-05-13T15:14:28.121Z,25.56
2019-05-13T15:18:49.198Z,23.96
2019-05-13T15:23:11.904Z,24.03
2019-05-13T15:27:33.137Z,24.09
2019-05-13T15:31:54.301Z,23.47
2019-05-13T15:36:15.237Z,23.16
2019-05-13T15:40:36.429Z,24.19
2019-05-13T15:44:57.435Z,24.31
2019-05-13T15:49:18.063Z,23.84
2019-05-13T15:53:39.468Z,24.56
2019-05-13T15:58:02.443Z,25.37
2019-05-13T16:02:23.503Z,24.57
2019-05-13T16:06:56.897Z,24.29
2019-05-13T16:11:18.181Z,25.51
2019-05-13T16:15:38.276Z,24.27
2019-05-13T16:20:01.949Z,25.41
2019-05-13T16:24:46.420Z,24.95
2019-05-13T16:29:08.195Z,24.41
2019-05-13T16:33:31.369Z,24.61
2019-05-13T16:37:51.868Z,26.19
2019-05-13T16:42:12.145Z,26.17
2019-05-13T16:46:33.535Z,23.84
2019-05-13T16:50:54.426Z,23.74
2019-05-13T16:55:15.456Z,22.27
2019-05-13T16:59:36.107Z,23.74
2019-05-13T17:03:57.876Z,22.38
2019-05-13T17:08:19.152Z,22.25
2019-05-13T17:12:39.712Z,21.37
2019-05-13T17:17:01.201Z,21.33
2019-05-13T17:21:22.749Z,21.62
2019-05-13T17:25:44.676Z,21.87
2019-05-13T17:30:05.047Z,22.43
2019-05-13T17:34:26.032Z,20.77
2019-05-13T17:38:47.538Z,19.79
2019-05-13T17:43:07.529Z,20.58
2019-05-13T17:47:28.252Z,20.88
2019-05-13T17:51:48.974Z,22.69
2019-05-13T17:56:11.090Z,23.62
2019-05-13T18:00:32.256Z,26.07
2019-05-13T18:04:53.586Z,25.69
2019-05-13T18:09:14.489Z,25.44
2019-05-13T18:13:34.999Z,25.88
2019-05-13T18:17:55.957Z,27.45
2019-05-13T18:22:16.484Z,26.72
2019-05-13T18:26:37.318Z,28.07
2019-05-13T18:30:57.710Z,27.43
2019-05-13T18:35:18.278Z,28.85
2019-05-13T18:39:41.433Z,28.52
2019-05-13T18:44:01.569Z,28.68
2019-05-13T18:48:22.809Z,29.08
2019-05-13T18:52:46.826Z,29.78
2019-05-13T18:57:08.113Z,30.21
2019-05-13T19:01:28.605Z,30.40
2019-05-13T19:05:50.737Z,31.19
2019-05-13T19:10:11.608Z,30.41
2019-05-13T19:14:32.533Z,29.96
2019-05-13T19:18:53.146Z,30.79
2019-05-13T19:23:13.887Z,31.99
2019-05-13T19:27:34.796Z,32.53
2019-05-13T19:31:55.100Z,31.51
2019-05-13T19:36:16.599Z,31.51
2019-05-13T19:40:37.440Z,31.93
2019-05-13T19:44:58.658Z,31.71
2019-05-13T19:49:29.675Z,32.21
2019-05-13T19:53:44.532Z,32.33
2019-05-13T19:58:04.856Z,31.83
2019-05-13T20:02:25.618Z,33.07
2019-05-13T20:06:46.356Z,33.90
2019-05-13T20:11:06.950Z,33.32
2019-05-13T20:15:28.154Z,33.87
2019-05-13T20:19:51.412Z,33.75
2019-05-13T20:24:11.940Z,34.55
2019-05-13T20:28:32.464Z,34.92
2019-05-13T20:32:53.715Z,35.86
2019-05-13T20:37:14.944Z,35.97
2019-05-13T20:41:36.683Z,36.82
2019-05-13T20:45:57.557Z,37.10
2019-05-13T20:50:21.476Z,37.83
2019-05-13T20:54:41.695Z,37.83
2019-05-13T20:59:03.057Z,37.85
2019-05-13T21:03:25.200Z,37.63
2019-05-13T21:07:45.936Z,37.88
2019-05-13T21:12:06.658Z,38.03
2019-05-13T21:16:27.077Z,39.11
2019-05-13T21:20:47.680Z,39.08
2019-05-13T21:25:08.581Z,40.48
2019-05-13T21:29:29.490Z,40.48
2019-05-13T21:33:51.361Z,40.99
2019-05-13T21:38:12.488Z,41.86
2019-05-13T21:42:34.115Z,42.07
2019-05-13T21:46:54.789Z,42.38
2019-05-13T21:51:15.939Z,42.09
2019-05-13T21:55:36.955Z,42.09
2019-05-13T21:59:57.714Z,41.95
2019-05-13T22:04:18.564Z,42.38
2019-05-13T22:08:41.128Z,42.56
2019-05-13T22:13:02.447Z,42.17
2019-05-13T22:17:23.621Z,43.39
2019-05-13T22:21:44.367Z,43.67
2019-05-13T22:26:05.200Z,43.67
2019-05-13T22:32:21.964Z,43.70
2019-05-13T22:36:42.781Z,44.54
2019-05-13T22:41:03.455Z,44.52
2019-05-13T22:45:24.256Z,44.26
2019-05-13T22:49:44.784Z,44.90
2019-05-13T22:54:05.668Z,44.65
2019-05-13T22:58:26.636Z,45.27
2019-05-13T23:02:47.358Z,45.75
2019-05-13T23:07:07.510Z,45.75
2019-05-13T23:11:28.006Z,45.87
2019-05-13T23:15:48.572Z,46.58
2019-05-13T23:20:09.740Z,46.58
2019-05-13T23:24:31.201Z,46.89
2019-05-13T23:28:52.272Z,48.04
2019-05-13T23:33:12.382Z,47.28
2019-05-13T23:37:32.879Z,47.71
2019-05-13T23:41:53.445Z,47.99
2019-05-13T23:46:13.968Z,48.44
2019-05-13T23:50:34.549Z,48.66
2019-05-13T23:54:55.363Z,49.13
2019-05-13T23:59:16.337Z,49.34
